createdAt,value
2019-05-11T00:00:30.829Z,4.83
2019-05-11T00:03:01.942Z,5.53
2019-05-11T00:05:33.166Z,4.10
2019-05-11T00:08:04.533Z,4.10
2019-05-11T00:10:35.829Z,4.72
2019-05-11T00:13:08.773Z,4.70
2019-05-11T00:15:40.023Z,5.90
2019-05-11T00:18:11.296Z,5.50
2019-05-11T00:20:42.492Z,6.70
2019-05-11T00:23:13.799Z,5.90
2019-05-11T00:25:44.997Z,7.95
2019-05-11T00:28:16.410Z,9.45
2019-05-11T00:30:47.757Z,8.10
2019-05-11T00:33:18.976Z,9.20
2019-05-11T00:35:50.142Z,8.73
2019-05-11T00:38:21.464Z,8.65
2019-05-11T00:40:52.770Z,9.10
2019-05-11T00:43:24.142Z,8.80
2019-05-11T00:45:55.410Z,8.23
2019-05-11T00:48:26.839Z,7.20
2019-05-11T00:50:58.030Z,6.67
2019-05-11T00:53:29.309Z,7.87
2019-05-11T00:56:00.627Z,8.33
2019-05-11T00:58:31.900Z,7.67
2019-05-11T01:01:03.068Z,7.15
2019-05-11T01:03:34.432Z,8.03
2019-05-11T01:06:05.825Z,7.28
2019-05-11T01:08:37.239Z,7.42
2019-05-11T01:11:08.724Z,9.25
2019-05-11T01:13:40.228Z,6.83
2019-05-11T01:16:11.520Z,8.13
2019-05-11T01:18:42.838Z,7.75
2019-05-11T01:21:14.171Z,8.28
2019-05-11T01:23:45.650Z,7.97
2019-05-11T01:26:16.872Z,7.53
2019-05-11T01:28:48.207Z,7.42
2019-05-11T01:31:19.571Z,7.58
2019-05-11T01:33:50.822Z,7.55
2019-05-11T01:36:21.978Z,7.40
2019-05-11T01:38:53.123Z,7.25
2019-05-11T01:41:24.272Z,7.67
2019-05-11T01:43:55.443Z,7.35
2019-05-11T01:46:27.783Z,7.22
2019-05-11T01:48:59.218Z,7.67
2019-05-11T01:51:30.480Z,7.55
2019-05-11T01:54:01.740Z,8.10
2019-05-11T01:56:32.885Z,8.05
2019-05-11T01:59:04.490Z,8.68
2019-05-11T02:01:35.911Z,8.50
2019-05-11T02:04:07.216Z,7.83
2019-05-11T02:06:38.562Z,8.53
2019-05-11T02:09:10.039Z,7.95
2019-05-11T02:11:41.255Z,8.40
2019-05-11T02:14:12.534Z,8.63
2019-05-11T02:16:43.817Z,8.78
2019-05-11T02:19:15.217Z,8.68
2019-05-11T02:21:46.631Z,8.95
2019-05-11T02:24:18.341Z,8.03
2019-05-11T02:26:49.639Z,7.97
2019-05-11T02:29:20.865Z,8.23
2019-05-11T02:31:52.247Z,7.62
2019-05-11T02:34:23.436Z,6.62
2019-05-11T02:36:54.731Z,7.22
2019-05-11T02:39:26.035Z,6.87
2019-05-11T02:41:57.372Z,8.28
2019-05-11T02:44:28.729Z,6.55
2019-05-11T02:47:00.192Z,6.40
2019-05-11T02:49:31.595Z,6.80
2019-05-11T02:52:03.012Z,5.80
2019-05-11T02:54:34.316Z,6.42
2019-05-11T02:57:05.549Z,6.92
2019-05-11T02:59:36.769Z,5.87
2019-05-11T03:02:07.950Z,6.10
2019-05-11T03:04:39.150Z,6.10
2019-05-11T03:07:10.354Z,6.42
2019-05-11T03:09:41.658Z,6.45
2019-05-11T03:12:12.893Z,7.22
2019-05-11T03:14:44.189Z,8.03
2019-05-11T03:17:20.103Z,8.45
2019-05-11T03:19:51.402Z,8.55
2019-05-11T03:22:22.693Z,8.80
2019-05-11T03:24:54.053Z,8.90
2019-05-11T03:27:25.458Z,8.40
2019-05-11T03:30:00.627Z,9.13
2019-05-11T03:32:30.034Z,8.20
2019-05-11T03:35:01.315Z,9.40
2019-05-11T03:37:32.753Z,8.50
2019-05-11T03:40:08.693Z,9.48
2019-05-11T03:42:39.917Z,8.93
2019-05-11T03:45:11.828Z,8.78
2019-05-11T03:47:43.187Z,9.73
2019-05-11T03:50:14.916Z,11.43
2019-05-11T03:52:46.234Z,12.55
2019-05-11T03:55:18.109Z,12.15
2019-05-11T03:57:49.479Z,11.70
2019-05-11T04:00:21.961Z,12.20
2019-05-11T04:02:53.224Z,11.47
2019-05-11T04:05:24.714Z,10.82
2019-05-11T04:07:56.181Z,10.23
2019-05-11T04:10:28.620Z,10.10
2019-05-11T04:12:59.900Z,10.40
2019-05-11T04:15:31.213Z,10.13
2019-05-11T04:18:02.563Z,9.13
2019-05-11T04:20:33.925Z,10.23
2019-05-11T04:23:05.249Z,9.88
2019-05-11T04:25:36.530Z,10.10
2019-05-11T04:28:07.934Z,11.40
2019-05-11T04:30:39.178Z,10.55
2019-05-11T04:33:10.492Z,12.13
2019-05-11T04:35:41.873Z,9.68
2019-05-11T04:38:13.225Z,10.95
2019-05-11T04:40:44.440Z,11.75
2019-05-11T04:43:15.968Z,11.48
2019-05-11T04:45:47.250Z,12.65
2019-05-11T04:48:19.568Z,11.97
2019-05-11T04:50:51.004Z,11.40
2019-05-11T04:53:22.489Z,11.65
2019-05-11T04:55:53.920Z,10.23
2019-05-11T04:58:25.275Z,13.28
2019-05-11T05:00:56.699Z,10.72
2019-05-11T05:03:40.414Z,11.33
2019-05-11T05:06:20.808Z,10.48
2019-05-11T05:08:35.367Z,11.55
2019-05-11T05:11:06.657Z,11.45
2019-05-11T05:13:38.052Z,16.75
2019-05-11T05:16:09.496Z,11.65
2019-05-11T05:18:40.744Z,12.78
2019-05-11T05:21:12.016Z,12.07
2019-05-11T05:23:43.390Z,12.33
2019-05-11T05:26:14.790Z,13.40
2019-05-11T05:28:46.471Z,14.23
2019-05-11T05:31:17.786Z,14.25
2019-05-11T05:33:50.260Z,14.60
2019-05-11T05:36:21.523Z,14.98
2019-05-11T05:38:52.967Z,17.85
2019-05-11T05:41:24.140Z,21.82
2019-05-11T05:43:55.486Z,19.05
2019-05-11T05:46:26.916Z,17.07
2019-05-11T05:48:58.149Z,16.67
2019-05-11T05:51:29.452Z,12.07
2019-05-11T05:54:00.850Z,12.55
2019-05-11T05:56:32.147Z,11.20
2019-05-11T05:59:03.468Z,10.15
2019-05-11T06:01:34.896Z,9.05
2019-05-11T06:04:06.367Z,10.53
2019-05-11T06:06:37.633Z,10.03
2019-05-11T06:09:09.062Z,10.90
2019-05-11T06:11:40.715Z,11.80
2019-05-11T06:14:12.214Z,10.95
2019-05-11T06:16:43.536Z,12.10
2019-05-11T06:19:15.316Z,11.22
2019-05-11T06:21:46.717Z,11.60
2019-05-11T06:24:18.159Z,11.68
2019-05-11T06:26:50.028Z,9.70
2019-05-11T06:29:21.947Z,8.90
2019-05-11T06:31:53.563Z,7.78
2019-05-11T06:34:24.960Z,9.30
2019-05-11T06:36:56.478Z,6.78
2019-05-11T06:39:27.936Z,7.90
2019-05-11T06:41:59.172Z,13.18
2019-05-11T06:44:30.640Z,8.90
2019-05-11T06:47:01.952Z,10.38
2019-05-11T06:49:33.546Z,8.13
2019-05-11T06:52:05.031Z,12.45
2019-05-11T06:54:36.462Z,8.03
2019-05-11T06:57:08.084Z,12.15
2019-05-11T06:59:39.559Z,32.35
2019-05-11T07:02:10.881Z,29.15
2019-05-11T07:04:42.232Z,28.87
2019-05-11T07:07:13.544Z,54.23
2019-05-11T07:09:44.750Z,40.90
2019-05-11T07:12:16.213Z,36.20
2019-05-11T07:14:47.667Z,20.23
2019-05-11T07:17:18.939Z,24.23
2019-05-11T07:19:50.246Z,62.83
2019-05-11T07:22:21.647Z,50.73
2019-05-11T07:24:53.087Z,68.85
2019-05-11T07:27:24.396Z,21.40
2019-05-11T07:29:56.219Z,18.27
2019-05-11T07:32:29.349Z,59.98
2019-05-11T07:35:01.640Z,83.87
2019-05-11T07:37:38.281Z,129.47
2019-05-11T07:40:09.797Z,98.90
2019-05-11T07:42:41.167Z,80.15
2019-05-11T07:45:12.827Z,84.47
2019-05-11T07:47:44.256Z,44.03
2019-05-11T07:50:17.931Z,79.25
2019-05-11T07:52:48.654Z,106.12
2019-05-11T07:55:20.152Z,17.77
2019-05-11T07:57:51.441Z,13.30
2019-05-11T08:00:22.947Z,6.10
2019-05-11T08:02:55.394Z,7.20
2019-05-11T08:05:28.332Z,9.20
2019-05-11T08:07:59.755Z,7.42
2019-05-11T08:10:32.013Z,6.03
2019-05-11T08:13:03.220Z,6.78
2019-05-11T08:15:34.566Z,9.85
2019-05-11T08:18:08.362Z,8.55
2019-05-11T08:20:39.014Z,8.10
2019-05-11T08:23:12.579Z,5.42
2019-05-11T08:25:43.861Z,5.58
2019-05-11T08:28:15.091Z,6.50
2019-05-11T08:30:48.570Z,5.72
2019-05-11T08:33:19.302Z,4.30
2019-05-11T08:35:50.626Z,4.33
2019-05-11T08:38:21.882Z,5.17
2019-05-11T08:40:53.109Z,4.83
2019-05-11T08:43:24.447Z,5.25
2019-05-11T08:45:57.782Z,6.05
2019-05-11T08:48:28.893Z,8.18
2019-05-11T08:51:00.194Z,5.28
2019-05-11T08:53:31.403Z,5.33
2019-05-11T08:56:02.722Z,6.65
2019-05-11T08:58:34.130Z,5.53
2019-05-11T09:01:05.400Z,5.25
2019-05-11T09:03:38.698Z,5.97
2019-05-11T09:06:09.691Z,4.95
2019-05-11T09:08:40.738Z,5.12
2019-05-11T09:11:11.927Z,5.67
2019-05-11T09:13:43.227Z,7.62
2019-05-11T09:16:15.816Z,8.03
2019-05-11T09:18:48.067Z,6.87
2019-05-11T09:21:19.353Z,7.72
2019-05-11T09:23:51.684Z,7.12
2019-05-11T09:26:22.840Z,8.48
2019-05-11T09:28:54.116Z,8.53
2019-05-11T09:31:25.362Z,9.55
2019-05-11T09:33:58.425Z,10.28
2019-05-11T09:36:31.084Z,85.67
2019-05-11T09:39:02.286Z,84.97
2019-05-11T09:41:33.707Z,21.42
2019-05-11T09:44:05.636Z,105.15
2019-05-11T09:46:38.440Z,73.40
2019-05-11T09:49:10.008Z,50.75
2019-05-11T09:51:41.711Z,36.20
2019-05-11T09:54:13.090Z,34.63
2019-05-11T09:56:44.532Z,13.20
2019-05-11T09:59:17.908Z,28.05
2019-05-11T10:01:49.004Z,22.20
2019-05-11T10:04:20.346Z,26.05
2019-05-11T10:06:51.779Z,14.23
2019-05-11T10:09:23.538Z,14.83
2019-05-11T10:11:54.860Z,18.05
2019-05-11T10:14:28.673Z,14.60
2019-05-11T10:16:59.324Z,13.00
2019-05-11T10:19:30.703Z,10.08
2019-05-11T10:22:02.126Z,11.90
2019-05-11T10:24:33.583Z,11.28
2019-05-11T10:27:05.115Z,14.55
2019-05-11T10:29:38.223Z,16.27
2019-05-11T10:34:40.371Z,18.65
2019-05-11T10:37:11.680Z,19.10
2019-05-11T10:39:43.078Z,13.40
2019-05-11T10:42:14.444Z,9.55
2019-05-11T10:44:47.861Z,10.68
2019-05-11T10:47:18.916Z,12.07
2019-05-11T10:49:50.340Z,8.93
2019-05-11T10:52:21.698Z,11.93
2019-05-11T10:54:53.076Z,11.22
2019-05-11T10:57:24.576Z,9.70
2019-05-11T10:59:57.950Z,11.38
2019-05-11T11:02:29.036Z,14.75
2019-05-11T11:05:00.406Z,10.60
2019-05-11T11:07:31.920Z,8.65
2019-05-11T11:10:03.941Z,10.18
2019-05-11T11:12:35.257Z,12.30
2019-05-11T11:15:08.003Z,9.20
2019-05-11T11:17:39.342Z,11.08
2019-05-11T11:20:11.050Z,10.10
2019-05-11T11:22:44.278Z,10.95
2019-05-11T11:25:17.754Z,11.30
2019-05-11T11:27:48.951Z,8.95
2019-05-11T11:30:21.415Z,9.73
2019-05-11T11:32:52.864Z,8.43
2019-05-11T11:35:24.249Z,9.80
2019-05-11T11:37:55.546Z,10.10
2019-05-11T11:40:28.173Z,10.25
2019-05-11T11:43:03.411Z,8.93
2019-05-11T11:45:34.770Z,10.63
2019-05-11T11:48:08.477Z,9.10
2019-05-11T11:50:39.250Z,11.15
2019-05-11T11:53:10.491Z,11.10
2019-05-11T11:55:41.733Z,11.05
2019-05-11T11:58:13.068Z,8.70
2019-05-11T12:00:44.376Z,8.45
2019-05-11T12:03:15.768Z,9.13
2019-05-11T12:05:47.704Z,8.00
2019-05-11T12:08:19.256Z,9.70
2019-05-11T12:10:50.584Z,10.20
2019-05-11T12:13:21.951Z,9.25
2019-05-11T12:15:53.263Z,10.05
2019-05-11T12:18:24.598Z,11.50
2019-05-11T12:20:56.005Z,12.05
2019-05-11T12:23:29.087Z,11.70
2019-05-11T12:26:00.314Z,12.53
2019-05-11T12:28:31.693Z,11.95
2019-05-11T12:31:04.494Z,12.75
2019-05-11T12:33:35.904Z,18.30
2019-05-11T12:36:07.959Z,11.45
2019-05-11T12:38:40.020Z,12.65
2019-05-11T12:41:11.363Z,12.98
2019-05-11T12:43:42.670Z,12.70
2019-05-11T12:46:14.093Z,11.73
2019-05-11T12:48:45.396Z,10.68
2019-05-11T12:51:18.697Z,10.23
2019-05-11T12:53:49.702Z,11.55
2019-05-11T12:56:21.296Z,12.37
2019-05-11T12:58:53.510Z,11.53
2019-05-11T13:01:24.880Z,11.83
2019-05-11T13:03:58.080Z,11.22
2019-05-11T13:06:29.370Z,11.22
2019-05-11T13:09:00.615Z,10.72
2019-05-11T13:11:33.626Z,9.83
2019-05-11T13:14:05.158Z,11.60
2019-05-11T13:16:37.809Z,12.47
2019-05-11T13:19:10.516Z,11.70
2019-05-11T13:21:41.958Z,10.75
2019-05-11T13:24:13.287Z,10.32
2019-05-11T13:26:44.622Z,11.03
2019-05-11T13:29:17.988Z,12.47
2019-05-11T13:31:49.024Z,12.78
2019-05-11T13:34:20.336Z,15.53
2019-05-11T13:36:51.734Z,12.75
2019-05-11T13:39:22.976Z,12.45
2019-05-11T13:41:54.410Z,14.00
2019-05-11T13:44:27.839Z,16.30
2019-05-11T13:49:32.480Z,11.93
2019-05-11T13:52:03.194Z,10.05
2019-05-11T13:54:34.792Z,10.50
2019-05-11T13:57:08.056Z,10.30
2019-05-11T13:59:39.803Z,10.00
2019-05-11T14:02:11.415Z,10.32
2019-05-11T14:04:42.740Z,9.75
2019-05-11T14:07:14.459Z,12.85
2019-05-11T14:09:45.862Z,11.90
2019-05-11T14:12:18.225Z,11.00
2019-05-11T14:14:51.240Z,10.97
2019-05-11T14:17:24.427Z,10.95
2019-05-11T14:19:59.701Z,11.40
2019-05-11T14:22:31.404Z,10.45
2019-05-11T14:25:03.034Z,10.23
2019-05-11T14:27:34.689Z,9.88
2019-05-11T14:30:08.953Z,10.80
2019-05-11T14:32:40.204Z,11.05
2019-05-11T14:35:12.446Z,12.33
2019-05-11T14:40:17.796Z,10.63
2019-05-11T14:42:49.861Z,10.10
2019-05-11T14:45:21.180Z,11.95
2019-05-11T14:47:52.488Z,13.45
2019-05-11T14:50:23.876Z,11.22
2019-05-11T14:52:55.328Z,10.80
2019-05-11T14:55:33.111Z,11.63
2019-05-11T14:58:08.544Z,11.38
2019-05-11T15:00:44.967Z,10.53
2019-05-11T15:03:22.197Z,11.03
2019-05-11T15:05:55.191Z,9.20
2019-05-11T15:08:28.671Z,8.85
2019-05-11T15:11:00.344Z,8.28
2019-05-11T15:13:32.595Z,8.93
2019-05-11T15:16:04.323Z,8.63
2019-05-11T15:18:44.285Z,9.15
2019-05-11T15:21:15.558Z,8.65
2019-05-11T15:23:47.763Z,8.85
2019-05-11T15:26:19.811Z,9.68
2019-05-11T15:28:52.090Z,10.10
2019-05-11T15:31:25.102Z,7.97
2019-05-11T15:33:57.724Z,9.28
2019-05-11T15:36:29.539Z,9.60
2019-05-11T15:39:00.806Z,8.05
2019-05-11T15:41:34.004Z,7.28
2019-05-11T15:44:05.416Z,8.28
2019-05-11T15:46:38.852Z,6.78
2019-05-11T15:49:09.672Z,7.55
2019-05-11T15:51:41.339Z,7.28
2019-05-11T15:54:12.685Z,8.18
2019-05-11T15:56:44.103Z,8.03
2019-05-11T15:59:15.360Z,10.82
2019-05-11T16:01:48.910Z,9.15
2019-05-11T16:04:20.908Z,7.60
2019-05-11T16:06:52.155Z,6.67
2019-05-11T16:09:23.562Z,5.75
2019-05-11T16:11:54.860Z,7.40
2019-05-11T16:14:28.195Z,7.62
2019-05-11T16:16:59.223Z,6.67
2019-05-11T16:19:30.933Z,6.67
2019-05-11T16:22:04.223Z,7.85
2019-05-11T16:24:39.821Z,7.80
2019-05-11T16:27:09.339Z,7.17
2019-05-11T16:29:40.578Z,6.30
2019-05-11T16:32:12.060Z,7.67
2019-05-11T16:34:43.682Z,7.83
2019-05-11T16:37:15.029Z,10.53
2019-05-11T16:39:47.459Z,9.65
2019-05-11T16:42:19.578Z,11.53
2019-05-11T16:44:50.917Z,13.13
2019-05-11T16:47:22.248Z,12.60
2019-05-11T16:49:53.653Z,10.50
2019-05-11T16:52:27.859Z,11.08
2019-05-11T16:54:58.448Z,10.03
2019-05-11T16:57:29.793Z,10.68
2019-05-11T17:00:01.138Z,12.23
2019-05-11T17:02:32.490Z,34.20
2019-05-11T17:05:07.690Z,40.45
2019-05-11T17:07:39.325Z,19.70
2019-05-11T17:10:10.733Z,11.00
2019-05-11T17:12:42.062Z,10.38
2019-05-11T17:15:13.538Z,14.23
2019-05-11T17:17:44.909Z,14.43
2019-05-11T17:20:18.585Z,13.60
2019-05-11T17:28:19.617Z,12.33
2019-05-11T17:30:51.044Z,15.20
2019-05-11T17:33:22.605Z,22.70
2019-05-11T17:35:54.394Z,30.95
2019-05-11T17:38:28.044Z,15.65
2019-05-11T17:40:58.997Z,16.62
2019-05-11T17:43:30.372Z,14.38
2019-05-11T17:46:01.938Z,13.08
2019-05-11T17:48:33.353Z,13.85
2019-05-11T17:51:18.372Z,13.45
2019-05-11T17:53:37.993Z,14.33
2019-05-11T17:56:09.534Z,35.45
2019-05-11T17:58:41.274Z,22.77
2019-05-11T18:01:12.785Z,18.67
2019-05-11T18:03:44.356Z,28.15
2019-05-11T18:06:15.760Z,33.83
2019-05-11T18:08:47.890Z,26.42
2019-05-11T18:11:19.544Z,25.43
2019-05-11T18:13:51.122Z,21.23
2019-05-11T18:16:22.428Z,16.48
2019-05-11T18:18:53.848Z,30.80
2019-05-11T18:21:25.330Z,28.85
2019-05-11T18:23:56.839Z,24.98
2019-05-11T18:26:28.666Z,20.43
2019-05-11T18:29:00.328Z,15.32
2019-05-11T18:31:31.611Z,16.12
2019-05-11T18:34:02.989Z,13.05
2019-05-11T18:36:34.599Z,13.88
2019-05-11T18:39:07.513Z,13.55
2019-05-11T18:41:39.354Z,12.65
2019-05-11T18:44:10.878Z,12.40
2019-05-11T18:46:42.181Z,12.03
2019-05-11T18:49:13.499Z,12.88
2019-05-11T18:51:44.891Z,10.90
2019-05-11T18:54:18.952Z,11.73
2019-05-11T18:56:49.274Z,13.60
2019-05-11T18:59:20.709Z,10.88
2019-05-11T19:01:53.110Z,11.18
2019-05-11T19:04:24.460Z,12.00
2019-05-11T19:06:55.785Z,10.48
2019-05-11T19:09:28.414Z,10.93
2019-05-11T19:11:59.960Z,11.22
2019-05-11T19:14:31.464Z,11.12
2019-05-11T19:17:02.996Z,10.35
2019-05-11T19:19:34.438Z,10.03
2019-05-11T19:22:05.923Z,10.48
2019-05-11T19:24:38.270Z,10.80
2019-05-11T19:27:09.851Z,10.10
2019-05-11T19:29:41.284Z,9.68
2019-05-11T19:32:12.683Z,9.93
2019-05-11T19:34:44.035Z,10.70
2019-05-11T19:37:15.484Z,11.40
2019-05-11T19:39:48.544Z,10.85
2019-05-11T19:42:20.196Z,11.05
2019-05-11T19:44:51.690Z,10.35
2019-05-11T19:47:23.136Z,10.25
2019-05-11T19:49:54.559Z,10.20
2019-05-11T19:52:28.078Z,12.93
2019-05-11T19:54:59.434Z,12.53
2019-05-11T19:57:30.858Z,14.50
2019-05-11T20:00:02.254Z,17.07
2019-05-11T20:02:33.677Z,18.05
2019-05-11T20:05:05.676Z,18.30
2019-05-11T20:07:37.841Z,15.60
2019-05-11T20:10:09.644Z,12.53
2019-05-11T20:12:41.875Z,13.20
2019-05-11T20:15:13.598Z,13.55
2019-05-11T20:17:44.830Z,13.90
2019-05-11T20:20:18.451Z,14.10
2019-05-11T20:22:49.715Z,14.28
2019-05-11T20:25:21.126Z,14.07
2019-05-11T20:27:52.394Z,13.18
2019-05-11T20:30:23.743Z,20.57
2019-05-11T20:32:55.222Z,13.03
2019-05-11T20:35:27.962Z,17.67
2019-05-11T20:37:59.710Z,14.40
2019-05-11T20:40:31.261Z,14.87
2019-05-11T20:43:02.692Z,17.75
2019-05-11T20:45:34.529Z,16.35
2019-05-11T20:48:07.946Z,14.58
2019-05-11T20:53:11.337Z,11.83
2019-05-11T20:55:42.770Z,11.33
2019-05-11T20:58:15.209Z,13.60
2019-05-11T21:00:49.011Z,11.68
2019-05-11T21:05:50.661Z,12.80
2019-05-11T21:08:23.228Z,12.37
2019-05-11T21:10:54.669Z,13.80
2019-05-11T21:13:28.174Z,15.48
2019-05-11T21:15:59.327Z,14.70
2019-05-11T21:18:30.703Z,15.50
2019-05-11T21:21:02.223Z,17.30
2019-05-11T21:23:33.605Z,16.05
2019-05-11T21:26:05.131Z,16.82
2019-05-11T21:28:38.045Z,16.32
2019-05-11T21:31:09.448Z,32.95
2019-05-11T21:33:40.843Z,27.37
2019-05-11T21:36:12.148Z,24.10
2019-05-11T21:38:43.544Z,26.10
2019-05-11T21:41:14.915Z,27.37
2019-05-11T21:43:48.310Z,32.98
2019-05-11T21:46:19.341Z,30.15
2019-05-11T21:48:50.779Z,27.95
2019-05-11T21:51:22.191Z,23.15
2019-05-11T21:53:53.617Z,22.22
2019-05-11T21:56:26.055Z,27.80
2019-05-11T21:58:57.417Z,21.70
2019-05-11T22:01:28.762Z,22.52
2019-05-11T22:04:00.195Z,23.65
2019-05-11T22:06:31.502Z,22.15
2019-05-11T22:09:03.067Z,25.72
2019-05-11T22:11:34.470Z,29.67
2019-05-11T22:14:08.064Z,32.00
2019-05-11T22:16:38.983Z,30.80
2019-05-11T22:19:10.551Z,34.13
2019-05-11T22:21:41.999Z,36.90
2019-05-11T22:24:13.452Z,44.73
2019-05-11T22:26:44.831Z,41.40
2019-05-11T22:29:18.196Z,35.60
2019-05-11T22:31:49.581Z,34.10
2019-05-11T22:34:20.919Z,26.05
2019-05-11T22:36:52.414Z,21.25
2019-05-11T22:39:23.888Z,23.22
2019-05-11T22:41:55.207Z,33.33
2019-05-11T22:44:27.922Z,31.60
2019-05-11T22:46:59.515Z,29.55
2019-05-11T22:49:30.841Z,38.73
2019-05-11T22:52:02.135Z,32.28
2019-05-11T22:54:33.601Z,52.45
2019-05-11T22:57:05.250Z,51.90
2019-05-11T22:59:38.441Z,52.03
2019-05-11T23:02:10.782Z,45.48
2019-05-11T23:04:42.267Z,55.70
2019-05-11T23:07:13.978Z,47.38
2019-05-11T23:09:45.232Z,51.80
2019-05-11T23:12:17.996Z,51.50
2019-05-11T23:14:51.180Z,45.80
2019-05-11T23:17:22.495Z,55.38
2019-05-11T23:19:53.879Z,59.33
2019-05-11T23:22:25.127Z,56.83
2019-05-11T23:24:58.659Z,51.83
2019-05-11T23:27:29.448Z,50.10
2019-05-11T23:30:00.658Z,41.08
2019-05-11T23:32:32.202Z,50.35
2019-05-11T23:35:08.357Z,47.03
2019-05-11T23:37:42.476Z,49.25
2019-05-11T23:40:13.242Z,54.15
2019-05-11T23:42:44.655Z,55.63
2019-05-11T23:45:18.551Z,51.18
2019-05-11T23:50:20.542Z,138.55
2019-05-11T23:53:05.461Z,69.62
2019-05-11T23:55:25.033Z,66.53
2019-05-11T23:57:57.637Z,53.55
